createdAt,value
2022-07-30T00:00:00.231Z,66.8
2022-07-30T00:01:00.265Z,67.2
2022-07-30T00:02:00.331Z,66.8
2022-07-30T00:03:00.369Z,67.3
2022-07-30T00:04:00.312Z,67.0
2022-07-30T00:05:00.562Z,67.0
2022-07-30T00:06:00.622Z,66.7
2022-07-30T00:07:00.925Z,67.2
2022-07-30T00:08:00.258Z,67.3
2022-07-30T00:09:00.255Z,67.2
2022-07-30T00:10:01.691Z,66.6
2022-07-30T00:11:00.464Z,67.0
2022-07-30T00:12:00.291Z,66.9
2022-07-30T00:13:00.256Z,66.4
2022-07-30T00:14:00.652Z,66.8
2022-07-30T00:15:00.278Z,66.8
2022-07-30T00:16:00.218Z,66.6
2022-07-30T00:17:01.279Z,66.5
2022-07-30T00:18:00.239Z,67.2
2022-07-30T00:19:00.283Z,66.9
2022-07-30T00:20:00.335Z,66.8
2022-07-30T00:21:00.255Z,66.6
2022-07-30T00:22:00.373Z,66.5
2022-07-30T00:23:02.897Z,66.5
2022-07-30T00:24:02.036Z,66.5
2022-07-30T00:25:00.277Z,66.3
2022-07-30T00:26:00.375Z,66.5
2022-07-30T00:27:00.578Z,66.7
2022-07-30T00:28:00.301Z,66.2
2022-07-30T00:29:00.269Z,66.1
2022-07-30T00:30:01.496Z,66.2
2022-07-30T00:31:00.542Z,66.3
2022-07-30T00:32:00.298Z,66.1
2022-07-30T00:33:00.328Z,66.5
2022-07-30T00:34:00.225Z,66.6
2022-07-30T00:35:00.397Z,66.5
2022-07-30T00:36:00.239Z,66.4
2022-07-30T00:37:00.446Z,66.3
2022-07-30T00:38:00.419Z,66.0
2022-07-30T00:39:00.276Z,66.2
2022-07-30T00:40:00.571Z,66.3
2022-07-30T00:41:00.248Z,66.4
2022-07-30T00:42:02.742Z,66.3
2022-07-30T00:43:00.211Z,66.3
2022-07-30T00:44:00.223Z,66.5
2022-07-30T00:45:00.274Z,66.4
2022-07-30T00:46:00.499Z,66.2
2022-07-30T00:47:00.807Z,66.5
2022-07-30T00:48:00.266Z,66.4
2022-07-30T00:49:00.300Z,66.5
2022-07-30T00:50:00.432Z,66.4
2022-07-30T00:51:00.245Z,66.8
2022-07-30T00:52:00.274Z,66.4
2022-07-30T00:53:00.236Z,66.2
2022-07-30T00:54:00.257Z,66.3
2022-07-30T00:55:01.566Z,66.4
2022-07-30T00:56:01.246Z,66.5
2022-07-30T00:57:00.497Z,66.5
2022-07-30T00:58:00.725Z,66.4
2022-07-30T00:59:00.331Z,66.4
2022-07-30T01:00:00.375Z,66.1
2022-07-30T01:01:00.732Z,66.1
2022-07-30T01:02:00.345Z,66.5
2022-07-30T01:03:00.294Z,66.4
2022-07-30T01:04:00.773Z,66.5
2022-07-30T01:05:00.235Z,66.5
2022-07-30T01:06:00.224Z,66.8
2022-07-30T01:07:00.541Z,66.5
2022-07-30T01:08:00.225Z,66.0
2022-07-30T01:09:00.266Z,66.4
2022-07-30T01:10:01.021Z,66.6
2022-07-30T01:11:00.698Z,66.5
2022-07-30T01:12:00.503Z,66.2
2022-07-30T01:13:00.374Z,66.6
2022-07-30T01:14:00.371Z,66.9
2022-07-30T01:15:02.737Z,66.6
2022-07-30T01:16:00.426Z,66.6
2022-07-30T01:17:01.477Z,66.8
2022-07-30T01:18:03.920Z,66.4
2022-07-30T01:19:04.713Z,66.5
2022-07-30T01:20:12.113Z,66.8
2022-07-30T01:21:06.466Z,66.7
2022-07-30T01:22:09.575Z,66.6
2022-07-30T01:23:17.593Z,66.3
2022-07-30T01:24:14.789Z,66.8
2022-07-30T01:25:10.863Z,66.6
2022-07-30T01:26:04.362Z,67.1
2022-07-30T01:27:01.165Z,67.1
2022-07-30T01:28:06.163Z,67.0
2022-07-30T01:29:00.868Z,67.0
2022-07-30T01:30:04.137Z,67.1
2022-07-30T01:31:02.884Z,67.0
2022-07-30T01:32:01.616Z,67.0
2022-07-30T01:33:02.086Z,66.7
2022-07-30T01:34:01.211Z,67.1
2022-07-30T01:35:02.055Z,67.0
2022-07-30T01:36:01.462Z,66.9
2022-07-30T01:37:03.008Z,67.0
2022-07-30T01:38:02.945Z,67.4
2022-07-30T01:39:01.428Z,67.4
2022-07-30T01:40:01.290Z,67.5
2022-07-30T01:41:01.693Z,67.5
2022-07-30T01:42:01.825Z,67.6
2022-07-30T01:43:02.581Z,67.6
2022-07-30T01:44:01.927Z,67.8
2022-07-30T01:45:02.007Z,68.1
2022-07-30T01:46:02.042Z,68.1
2022-07-30T01:47:02.423Z,68.0
2022-07-30T01:48:03.148Z,68.2
2022-07-30T01:49:01.790Z,68.2
2022-07-30T01:50:03.560Z,68.5
2022-07-30T01:51:03.906Z,68.4
2022-07-30T01:52:02.012Z,68.4
2022-07-30T01:53:00.838Z,68.6
2022-07-30T01:54:00.977Z,68.5
2022-07-30T01:55:01.604Z,68.8
2022-07-30T01:56:01.235Z,68.8
2022-07-30T01:57:01.379Z,68.8
2022-07-30T01:58:02.302Z,69.1
2022-07-30T01:59:02.143Z,69.0
2022-07-30T02:00:04.969Z,69.1
2022-07-30T02:01:00.628Z,69.1
2022-07-30T02:02:00.754Z,69.2
2022-07-30T02:03:00.357Z,69.4
2022-07-30T02:04:01.692Z,69.4
2022-07-30T02:05:00.594Z,69.5
2022-07-30T02:06:16.719Z,69.4
2022-07-30T02:07:05.299Z,69.9
2022-07-30T02:08:06.435Z,69.7
2022-07-30T02:09:10.926Z,69.8
2022-07-30T02:10:06.566Z,69.6
2022-07-30T02:11:10.946Z,69.7
2022-07-30T02:12:01.710Z,69.7
2022-07-30T02:13:04.985Z,69.8
2022-07-30T02:14:01.891Z,69.8
2022-07-30T02:15:10.539Z,70.0
2022-07-30T02:16:14.008Z,70.2
2022-07-30T02:17:02.224Z,70.2
2022-07-30T02:18:09.479Z,70.1
2022-07-30T02:19:07.638Z,70.2
2022-07-30T02:20:01.573Z,70.2
2022-07-30T02:21:07.399Z,69.8
2022-07-30T02:22:05.283Z,69.9
2022-07-30T02:23:05.209Z,70.1
2022-07-30T02:24:04.142Z,70.4
2022-07-30T02:25:01.701Z,70.4
2022-07-30T02:26:01.459Z,70.2
2022-07-30T02:27:04.270Z,70.3
2022-07-30T02:28:06.847Z,70.0
2022-07-30T02:29:02.155Z,70.0
2022-07-30T02:30:02.038Z,70.3
2022-07-30T02:31:00.475Z,70.3
2022-07-30T02:32:03.786Z,70.4
2022-07-30T02:33:04.697Z,70.3
2022-07-30T02:34:03.959Z,70.4
2022-07-30T02:35:06.950Z,70.4
2022-07-30T02:36:01.650Z,70.4
2022-07-30T02:37:01.704Z,70.2
2022-07-30T02:38:01.539Z,70.1
2022-07-30T02:39:03.321Z,70.5
2022-07-30T02:40:00.281Z,70.5
2022-07-30T02:41:01.447Z,70.4
2022-07-30T02:42:01.834Z,70.6
2022-07-30T02:43:00.797Z,70.5
2022-07-30T02:44:01.675Z,70.4
2022-07-30T02:45:01.678Z,70.7
2022-07-30T02:46:01.520Z,70.7
2022-07-30T02:47:04.789Z,70.6
2022-07-30T02:48:02.733Z,70.9
2022-07-30T02:49:02.265Z,70.9
2022-07-30T02:50:01.453Z,70.8
2022-07-30T02:51:03.346Z,70.9
2022-07-30T02:52:01.791Z,70.9
2022-07-30T02:53:02.500Z,71.3
2022-07-30T02:54:01.315Z,71.0
2022-07-30T02:55:02.182Z,70.9
2022-07-30T02:56:01.868Z,70.5
2022-07-30T02:57:01.552Z,70.5
2022-07-30T02:58:01.555Z,71.0
2022-07-30T02:59:01.987Z,71.3
2022-07-30T03:00:03.268Z,71.3
2022-07-30T03:01:01.544Z,71.3
2022-07-30T03:02:02.485Z,71.7
2022-07-30T03:03:03.667Z,71.3
2022-07-30T03:04:01.689Z,71.3
2022-07-30T03:05:02.609Z,71.5
2022-07-30T03:06:00.761Z,71.6
2022-07-30T03:07:04.841Z,71.9
2022-07-30T03:08:01.534Z,72.2
2022-07-30T03:09:02.260Z,72.3
2022-07-30T03:10:01.544Z,72.1
2022-07-30T03:11:01.852Z,72.4
2022-07-30T03:12:01.825Z,72.6
2022-07-30T03:13:03.227Z,72.5
2022-07-30T03:14:00.314Z,72.5
2022-07-30T03:15:00.723Z,72.7
2022-07-30T03:16:03.667Z,73.0
2022-07-30T03:17:02.610Z,73.0
2022-07-30T03:18:01.640Z,72.6
2022-07-30T03:19:02.346Z,72.7
2022-07-30T03:20:01.869Z,72.9
2022-07-30T03:21:01.459Z,73.1
2022-07-30T03:22:01.063Z,73.2
2022-07-30T03:23:03.096Z,73.4
2022-07-30T03:24:01.325Z,73.4
2022-07-30T03:25:01.846Z,73.3
2022-07-30T03:26:01.919Z,73.1
2022-07-30T03:27:00.582Z,73.2
2022-07-30T03:28:02.174Z,73.7
2022-07-30T03:29:01.660Z,74.5
2022-07-30T03:30:01.543Z,73.8
2022-07-30T03:31:00.590Z,73.8
2022-07-30T03:32:00.961Z,73.9
2022-07-30T03:33:00.758Z,73.9
2022-07-30T03:34:01.400Z,74.2
2022-07-30T03:35:05.908Z,73.6
2022-07-30T03:36:01.228Z,73.8
2022-07-30T03:37:03.325Z,74.2
2022-07-30T03:38:01.377Z,74.2
2022-07-30T03:39:02.527Z,74.2
2022-07-30T03:40:00.983Z,74.1
2022-07-30T03:41:00.900Z,74.2
2022-07-30T03:42:01.328Z,74.3
2022-07-30T03:43:00.502Z,74.6
2022-07-30T03:44:00.998Z,75.2
2022-07-30T03:45:04.414Z,74.7
2022-07-30T03:46:02.397Z,74.7
2022-07-30T03:47:01.895Z,74.9
2022-07-30T03:48:00.773Z,75.1
2022-07-30T03:49:00.594Z,75.4
2022-07-30T03:50:00.246Z,75.5
2022-07-30T03:51:02.715Z,75.3
2022-07-30T03:52:00.928Z,75.3
2022-07-30T03:53:02.738Z,75.0
2022-07-30T03:54:01.169Z,75.0
2022-07-30T03:55:02.106Z,75.2
2022-07-30T03:56:01.043Z,74.8
2022-07-30T03:57:01.740Z,74.7
2022-07-30T03:58:01.064Z,74.8
2022-07-30T03:59:00.891Z,74.4
2022-07-30T04:00:00.531Z,74.9
2022-07-30T04:01:00.276Z,74.9
2022-07-30T04:02:05.821Z,74.5
2022-07-30T04:03:00.240Z,74.6
2022-07-30T04:04:08.423Z,74.4
2022-07-30T04:05:00.229Z,74.4
2022-07-30T04:06:00.860Z,74.3
2022-07-30T04:07:00.798Z,74.2
2022-07-30T04:08:00.233Z,74.2
2022-07-30T04:09:00.255Z,74.2
2022-07-30T04:10:00.338Z,74.3
2022-07-30T04:11:00.245Z,74.2
2022-07-30T04:12:00.304Z,73.9
2022-07-30T04:13:00.233Z,74.1
2022-07-30T04:14:00.642Z,74.3
2022-07-30T04:15:00.952Z,74.0
2022-07-30T04:16:39.641Z,73.9
2022-07-30T04:17:04.728Z,74.0
2022-07-30T04:18:03.372Z,73.9
2022-07-30T04:19:04.230Z,73.9
2022-07-30T04:20:05.303Z,73.8
2022-07-30T04:21:04.497Z,74.0
2022-07-30T04:22:01.660Z,74.0
2022-07-30T04:23:01.757Z,74.2
2022-07-30T04:24:03.623Z,74.3
2022-07-30T04:25:02.485Z,73.9
2022-07-30T04:26:00.945Z,74.0
2022-07-30T04:27:01.963Z,74.0
2022-07-30T04:28:03.225Z,73.8
2022-07-30T04:29:04.640Z,74.4
2022-07-30T04:30:00.793Z,74.4
2022-07-30T04:31:00.462Z,74.4
2022-07-30T04:32:00.435Z,74.3
2022-07-30T04:33:02.132Z,75.0
2022-07-30T04:34:04.613Z,74.5
2022-07-30T04:35:00.337Z,74.5
2022-07-30T04:36:04.707Z,74.6
2022-07-30T04:37:00.760Z,74.6
2022-07-30T04:38:00.658Z,74.8
2022-07-30T04:39:00.289Z,74.6
2022-07-30T04:40:00.284Z,74.7
2022-07-30T04:41:00.690Z,74.7
2022-07-30T04:42:00.265Z,75.6
2022-07-30T04:43:00.474Z,75.3
2022-07-30T04:44:00.346Z,74.7
2022-07-30T04:45:00.330Z,74.6
2022-07-30T04:46:00.439Z,73.7
2022-07-30T04:47:00.569Z,73.5
2022-07-30T04:48:00.388Z,73.9
2022-07-30T04:49:00.693Z,73.8
2022-07-30T04:50:01.730Z,72.8
2022-07-30T04:51:03.950Z,72.9
2022-07-30T04:52:01.566Z,72.9
2022-07-30T04:53:01.281Z,72.4
2022-07-30T04:54:01.969Z,72.4
2022-07-30T04:55:05.582Z,72.2
2022-07-30T04:56:02.767Z,72.5
2022-07-30T04:57:00.518Z,72.5
2022-07-30T04:58:02.005Z,72.5
2022-07-30T04:59:00.783Z,72.0
2022-07-30T05:00:00.421Z,72.0
2022-07-30T05:01:01.554Z,72.0
2022-07-30T05:02:01.274Z,72.8
2022-07-30T05:03:01.920Z,72.0
2022-07-30T05:04:01.194Z,72.2
2022-07-30T05:05:01.045Z,72.3
2022-07-30T05:06:01.514Z,72.6
2022-07-30T05:07:02.829Z,72.1
2022-07-30T05:08:01.144Z,71.6
2022-07-30T05:09:00.643Z,71.2
2022-07-30T05:10:00.434Z,71.4
2022-07-30T05:11:00.415Z,71.1
2022-07-30T05:12:00.321Z,71.4
2022-07-30T05:13:00.295Z,71.4
2022-07-30T05:14:00.407Z,71.3
2022-07-30T05:15:00.332Z,71.2
2022-07-30T05:16:00.388Z,71.5
2022-07-30T05:17:00.855Z,71.4
2022-07-30T05:18:00.300Z,71.2
2022-07-30T05:19:00.254Z,71.4
2022-07-30T05:20:00.241Z,70.9
2022-07-30T05:21:00.320Z,70.9
2022-07-30T05:22:04.709Z,71.0
2022-07-30T05:23:00.285Z,71.0
2022-07-30T05:24:00.283Z,71.2
2022-07-30T05:25:00.291Z,71.8
2022-07-30T05:26:00.507Z,72.1
2022-07-30T05:27:00.595Z,71.1
2022-07-30T05:28:00.208Z,70.5
2022-07-30T05:29:00.481Z,70.9
2022-07-30T05:30:00.268Z,71.1
2022-07-30T05:31:00.262Z,70.8
2022-07-30T05:32:02.695Z,71.0
2022-07-30T05:33:01.357Z,71.0
2022-07-30T05:34:03.317Z,71.2
2022-07-30T05:35:00.226Z,71.3
2022-07-30T05:36:00.278Z,71.0
2022-07-30T05:37:00.396Z,72.0
2022-07-30T05:38:00.305Z,71.1
2022-07-30T05:39:00.498Z,70.8
2022-07-30T05:40:03.471Z,70.8
2022-07-30T05:41:00.276Z,70.8
2022-07-30T05:42:00.313Z,70.7
2022-07-30T05:43:00.226Z,70.6
2022-07-30T05:44:00.366Z,70.6
2022-07-30T05:45:00.316Z,70.7
2022-07-30T05:46:00.449Z,70.7
2022-07-30T05:47:00.509Z,70.4
2022-07-30T05:48:00.219Z,70.9
2022-07-30T05:49:00.293Z,70.2
2022-07-30T05:50:04.378Z,70.3
2022-07-30T05:51:01.761Z,70.3
2022-07-30T05:52:00.269Z,70.1
2022-07-30T05:53:00.301Z,70.0
2022-07-30T05:54:00.244Z,70.0
2022-07-30T05:55:00.317Z,70.2
2022-07-30T05:56:00.594Z,70.7
2022-07-30T05:57:00.489Z,70.7
2022-07-30T05:58:00.229Z,70.4
2022-07-30T05:59:00.514Z,70.9
2022-07-30T06:00:00.309Z,70.4
2022-07-30T06:01:00.230Z,70.4
2022-07-30T06:02:00.746Z,70.6
2022-07-30T06:03:01.980Z,70.5
2022-07-30T06:04:00.350Z,70.6
2022-07-30T06:05:00.501Z,70.6
2022-07-30T06:06:03.384Z,70.9
2022-07-30T06:07:00.640Z,70.9
2022-07-30T06:08:00.279Z,71.0
2022-07-30T06:09:00.226Z,70.3
2022-07-30T06:10:00.375Z,69.9
2022-07-30T06:11:00.276Z,70.1
2022-07-30T06:12:00.319Z,70.2
2022-07-30T06:13:00.373Z,70.3
2022-07-30T06:14:00.231Z,69.7
2022-07-30T06:15:00.273Z,69.7
2022-07-30T06:16:00.382Z,69.8
2022-07-30T06:17:00.692Z,69.3
2022-07-30T06:18:02.288Z,69.6
2022-07-30T06:19:00.257Z,69.8
2022-07-30T06:20:00.267Z,69.9
2022-07-30T06:21:00.261Z,70.1
2022-07-30T06:22:06.056Z,70.4
2022-07-30T06:23:00.274Z,70.6
2022-07-30T06:24:00.296Z,70.8
2022-07-30T06:25:00.277Z,71.0
2022-07-30T06:26:00.230Z,71.0
2022-07-30T06:27:00.830Z,71.0
2022-07-30T06:28:15.435Z,71.2
2022-07-30T06:29:00.245Z,71.5
2022-07-30T06:30:00.679Z,71.8
2022-07-30T06:31:00.431Z,71.5
2022-07-30T06:32:00.260Z,70.7
2022-07-30T06:33:00.282Z,71.0
2022-07-30T06:34:00.298Z,70.7
2022-07-30T06:35:04.586Z,71.0
2022-07-30T06:36:00.348Z,71.1
2022-07-30T06:37:00.456Z,71.3
2022-07-30T06:38:06.799Z,71.6
2022-07-30T06:39:00.628Z,71.2
2022-07-30T06:40:00.373Z,71.0
2022-07-30T06:41:02.590Z,71.3
2022-07-30T06:42:00.327Z,71.4
2022-07-30T06:43:00.354Z,71.7
2022-07-30T06:44:00.305Z,71.6
2022-07-30T06:45:00.233Z,71.1
2022-07-30T06:46:00.458Z,71.3
2022-07-30T06:47:05.391Z,71.1
2022-07-30T06:48:00.280Z,71.4
2022-07-30T06:49:00.356Z,71.6
2022-07-30T06:50:00.739Z,72.0
2022-07-30T06:51:00.304Z,72.2
2022-07-30T06:52:00.658Z,72.7
2022-07-30T06:53:00.264Z,72.2
2022-07-30T06:54:00.270Z,72.1
2022-07-30T06:55:00.377Z,72.4
2022-07-30T06:56:00.653Z,72.6
2022-07-30T06:57:00.660Z,72.4
2022-07-30T06:58:00.299Z,72.7
2022-07-30T06:59:00.336Z,72.5
2022-07-30T07:00:00.447Z,71.8
2022-07-30T07:01:00.345Z,72.2
2022-07-30T07:02:00.273Z,72.2
2022-07-30T07:03:00.222Z,72.4
2022-07-30T07:04:00.447Z,72.6
2022-07-30T07:05:00.455Z,71.9
2022-07-30T07:06:00.223Z,72.1
2022-07-30T07:07:00.470Z,72.6
2022-07-30T07:08:00.286Z,73.1
2022-07-30T07:09:00.531Z,73.4
2022-07-30T07:10:00.309Z,73.6
2022-07-30T07:11:00.215Z,73.4
2022-07-30T07:12:00.365Z,73.1
2022-07-30T07:13:00.260Z,73.0
2022-07-30T07:14:04.059Z,73.4
2022-07-30T07:15:00.312Z,73.7
2022-07-30T07:16:00.361Z,73.6
2022-07-30T07:17:00.747Z,73.0
2022-07-30T07:18:00.572Z,73.4
2022-07-30T07:19:00.215Z,73.2
2022-07-30T07:20:02.572Z,73.4
2022-07-30T07:21:00.245Z,72.9
2022-07-30T07:22:00.294Z,72.8
2022-07-30T07:23:05.307Z,73.0
2022-07-30T07:24:00.521Z,72.1
2022-07-30T07:25:00.261Z,72.2
2022-07-30T07:26:00.236Z,72.2
2022-07-30T07:27:00.609Z,72.7
2022-07-30T07:28:11.622Z,72.8
2022-07-30T07:29:04.852Z,72.7
2022-07-30T07:30:01.486Z,72.7
2022-07-30T07:31:00.719Z,72.5
2022-07-30T07:32:06.919Z,72.2
2022-07-30T07:33:00.341Z,72.4
2022-07-30T07:34:00.231Z,72.2
2022-07-30T07:35:00.581Z,72.4
2022-07-30T07:36:00.249Z,72.2
2022-07-30T07:37:00.492Z,71.9
2022-07-30T07:38:00.270Z,72.0
2022-07-30T07:39:00.275Z,72.2
2022-07-30T07:40:00.372Z,72.3
2022-07-30T07:41:00.294Z,72.8
2022-07-30T07:42:00.238Z,72.6
2022-07-30T07:43:00.248Z,72.1
2022-07-30T07:44:00.253Z,72.1
2022-07-30T07:45:00.258Z,72.2
2022-07-30T07:46:00.439Z,72.1
2022-07-30T07:47:00.535Z,73.4
2022-07-30T07:48:00.394Z,72.5
2022-07-30T07:49:01.027Z,71.8
2022-07-30T07:50:00.477Z,71.7
2022-07-30T07:51:00.870Z,72.3
2022-07-30T07:52:00.253Z,72.9
2022-07-30T07:53:00.317Z,72.5
2022-07-30T07:54:20.006Z,71.8
2022-07-30T07:55:00.272Z,71.5
2022-07-30T07:56:00.307Z,71.9
2022-07-30T07:57:00.843Z,71.9
2022-07-30T07:58:00.457Z,71.4
2022-07-30T07:59:00.258Z,72.4
2022-07-30T08:00:00.279Z,72.7
2022-07-30T08:01:00.315Z,73.0
2022-07-30T08:02:00.302Z,72.6
2022-07-30T08:03:00.219Z,73.0
2022-07-30T08:04:00.222Z,73.9
2022-07-30T08:05:00.248Z,74.3
2022-07-30T08:06:06.300Z,74.1
2022-07-30T08:07:00.443Z,74.3
2022-07-30T08:08:00.321Z,74.6
2022-07-30T08:09:00.223Z,76.1
2022-07-30T08:10:00.291Z,75.7
2022-07-30T08:11:00.308Z,76.2
2022-07-30T08:12:00.268Z,75.9
2022-07-30T08:13:00.251Z,75.7
2022-07-30T08:14:00.270Z,75.0
2022-07-30T08:15:00.605Z,75.8
2022-07-30T08:16:01.022Z,76.4
2022-07-30T08:17:00.710Z,76.9
2022-07-30T08:18:00.278Z,76.0
2022-07-30T08:19:00.396Z,76.1
2022-07-30T08:20:00.379Z,76.1
2022-07-30T08:21:00.231Z,75.9
2022-07-30T08:22:00.225Z,77.0
2022-07-30T08:23:00.851Z,76.9
2022-07-30T08:24:00.253Z,76.6
2022-07-30T08:25:00.256Z,76.0
2022-07-30T08:26:00.244Z,76.1
2022-07-30T08:27:00.507Z,76.0
2022-07-30T08:28:00.337Z,76.2
2022-07-30T08:29:00.247Z,76.3
2022-07-30T08:30:02.646Z,76.3
2022-07-30T08:31:02.407Z,76.4
2022-07-30T08:32:01.370Z,77.2
2022-07-30T08:33:00.281Z,77.3
2022-07-30T08:34:00.215Z,77.8
2022-07-30T08:35:00.358Z,78.1
2022-07-30T08:36:03.189Z,79.7
2022-07-30T08:37:00.673Z,79.9
2022-07-30T08:38:00.223Z,79.2
2022-07-30T08:39:00.351Z,78.9
2022-07-30T08:40:00.373Z,78.4
2022-07-30T08:41:00.257Z,79.3
2022-07-30T08:42:02.518Z,79.2
2022-07-30T08:43:03.961Z,81.5
2022-07-30T08:44:00.307Z,81.5
2022-07-30T08:45:00.637Z,80.7
2022-07-30T08:46:01.099Z,80.0
2022-07-30T08:47:02.146Z,79.6
2022-07-30T08:48:01.562Z,79.7
2022-07-30T08:49:07.565Z,80.3
2022-07-30T08:50:01.266Z,80.6
2022-07-30T08:51:01.175Z,80.7
2022-07-30T08:52:00.721Z,81.0
2022-07-30T08:53:00.836Z,80.3
2022-07-30T08:54:00.513Z,80.9
2022-07-30T08:55:00.923Z,81.2
2022-07-30T08:56:00.972Z,82.2
2022-07-30T08:57:01.389Z,81.3
2022-07-30T08:58:00.525Z,81.8
2022-07-30T08:59:00.799Z,82.0
2022-07-30T09:00:01.930Z,82.4
2022-07-30T09:01:01.661Z,83.4
2022-07-30T09:02:00.652Z,83.5
2022-07-30T09:03:00.379Z,83.6
2022-07-30T09:04:00.517Z,83.3
2022-07-30T09:05:00.309Z,83.1
2022-07-30T09:06:01.223Z,83.8
2022-07-30T09:07:01.141Z,84.4
2022-07-30T09:08:00.245Z,85.0
2022-07-30T09:09:00.234Z,85.0
2022-07-30T09:10:00.462Z,85.3
2022-07-30T09:11:00.362Z,84.9
2022-07-30T09:12:00.325Z,84.4
2022-07-30T09:13:00.302Z,83.9
2022-07-30T09:14:11.492Z,83.7
2022-07-30T09:15:06.225Z,84.0
2022-07-30T09:16:01.766Z,84.0
2022-07-30T09:17:00.535Z,84.6
2022-07-30T09:18:03.250Z,84.9
2022-07-30T09:19:11.397Z,84.9
2022-07-30T09:20:03.426Z,85.1
2022-07-30T09:21:13.621Z,85.6
2022-07-30T09:22:00.929Z,85.6
2022-07-30T09:23:02.713Z,86.1
2022-07-30T09:24:04.672Z,86.6
2022-07-30T09:25:00.288Z,86.6
2022-07-30T09:26:00.217Z,86.3
2022-07-30T09:27:03.113Z,86.6
2022-07-30T09:28:00.731Z,86.6
2022-07-30T09:29:14.516Z,85.8
2022-07-30T09:30:00.265Z,85.8
2022-07-30T09:31:00.241Z,85.2
2022-07-30T09:32:03.230Z,85.9
2022-07-30T09:33:00.216Z,85.9
2022-07-30T09:34:00.260Z,86.5
2022-07-30T09:35:10.958Z,87.9
2022-07-30T09:36:00.932Z,87.9
2022-07-30T09:37:02.786Z,88.6
2022-07-30T09:38:05.880Z,88.6
2022-07-30T09:39:00.275Z,88.8
2022-07-30T09:40:10.808Z,90.8
2022-07-30T09:41:08.142Z,90.8
2022-07-30T09:42:01.438Z,91.0
2022-07-30T09:43:02.952Z,92.3
2022-07-30T09:44:02.920Z,92.6
2022-07-30T09:45:09.603Z,93.0
2022-07-30T09:46:00.319Z,93.0
2022-07-30T09:47:00.277Z,94.1
2022-07-30T09:48:01.011Z,95.4
2022-07-30T09:49:14.371Z,95.6
2022-07-30T09:50:07.183Z,95.6
2022-07-30T09:51:00.248Z,96.6
2022-07-30T09:52:00.558Z,97.0
2022-07-30T09:53:08.957Z,98.0
2022-07-30T09:54:00.406Z,98.0
2022-07-30T09:55:00.423Z,98.0
2022-07-30T09:56:00.606Z,97.7
2022-07-30T09:57:26.025Z,100.0
2022-07-30T09:58:03.035Z,100.0
2022-07-30T09:59:00.280Z,100.0
2022-07-30T10:00:19.093Z,100.0
2022-07-30T10:01:00.734Z,100.0
2022-07-30T10:02:01.461Z,100.0
2022-07-30T10:03:01.060Z,100.0
2022-07-30T10:04:00.289Z,100.0
2022-07-30T10:05:08.815Z,100.0
2022-07-30T10:06:00.633Z,100.0
2022-07-30T10:07:01.036Z,100.0
2022-07-30T10:08:02.619Z,100.0
2022-07-30T10:09:00.279Z,100.0
2022-07-30T10:10:00.969Z,100.0
2022-07-30T10:11:00.304Z,100.0
2022-07-30T10:12:03.032Z,100.0
2022-07-30T10:13:04.496Z,100.0
2022-07-30T10:14:01.239Z,100.0
2022-07-30T10:15:02.353Z,100.0
2022-07-30T10:16:00.767Z,100.0
2022-07-30T10:17:01.206Z,100.0
2022-07-30T10:18:01.619Z,100.0
2022-07-30T10:19:00.542Z,100.0
2022-07-30T10:20:03.063Z,100.0
2022-07-30T10:21:01.595Z,100.0
2022-07-30T10:22:00.660Z,100.0
2022-07-30T10:23:00.572Z,100.0
2022-07-30T10:24:00.980Z,100.0
2022-07-30T10:25:01.585Z,100.0
2022-07-30T10:26:00.959Z,100.0
2022-07-30T10:27:01.281Z,100.0
2022-07-30T10:28:02.950Z,100.0
2022-07-30T10:29:00.797Z,100.0
2022-07-30T10:30:03.455Z,100.0
2022-07-30T10:31:00.322Z,100.0
2022-07-30T10:32:01.318Z,100.0
2022-07-30T10:33:01.579Z,100.0
2022-07-30T10:34:01.266Z,100.0
2022-07-30T10:35:00.318Z,100.0
2022-07-30T10:36:02.599Z,100.0
2022-07-30T10:37:06.547Z,100.0
2022-07-30T10:38:01.324Z,100.0
2022-07-30T10:39:00.900Z,100.0
2022-07-30T10:40:04.773Z,100.0
2022-07-30T10:41:06.404Z,100.0
2022-07-30T10:42:10.194Z,100.0
2022-07-30T10:43:20.133Z,100.0
2022-07-30T10:44:12.151Z,100.0
2022-07-30T10:45:17.281Z,100.0
2022-07-30T10:46:19.919Z,100.0
2022-07-30T10:47:07.034Z,100.0
2022-07-30T10:48:02.884Z,100.0
2022-07-30T10:49:19.058Z,100.0
2022-07-30T10:50:10.579Z,100.0
2022-07-30T10:51:00.368Z,100.0
2022-07-30T10:52:00.548Z,100.0
2022-07-30T10:53:00.630Z,100.0
2022-07-30T10:54:00.422Z,100.0
2022-07-30T10:55:00.233Z,100.0
2022-07-30T10:56:11.214Z,100.0
2022-07-30T10:57:10.660Z,100.0
2022-07-30T10:58:09.984Z,100.0
2022-07-30T10:59:03.866Z,100.0
2022-07-30T11:00:00.831Z,100.0
2022-07-30T11:01:00.278Z,100.0
2022-07-30T11:02:00.269Z,100.0
2022-07-30T11:03:14.038Z,100.0
2022-07-30T11:04:20.458Z,100.0
2022-07-30T11:05:17.496Z,100.0
2022-07-30T11:06:24.279Z,100.0
2022-07-30T11:07:20.135Z,100.0
2022-07-30T11:08:20.149Z,100.0
2022-07-30T11:09:00.248Z,100.0
2022-07-30T11:10:09.371Z,100.0
2022-07-30T11:11:19.780Z,100.0
2022-07-30T11:12:06.108Z,100.0
2022-07-30T11:13:00.337Z,100.0
2022-07-30T11:14:00.336Z,100.0
2022-07-30T11:15:06.284Z,100.0
2022-07-30T11:16:00.399Z,100.0
2022-07-30T11:17:00.305Z,100.0
2022-07-30T11:18:12.665Z,100.0
2022-07-30T11:19:55.786Z,100.0
2022-07-30T11:20:02.009Z,100.0
2022-07-30T11:21:14.413Z,100.0
2022-07-30T11:22:20.135Z,100.0
2022-07-30T11:23:20.129Z,100.0
2022-07-30T11:24:01.118Z,100.0
2022-07-30T11:25:00.557Z,100.0
2022-07-30T11:26:00.259Z,100.0
2022-07-30T11:27:00.462Z,100.0
2022-07-30T11:28:00.403Z,100.0
2022-07-30T11:29:00.250Z,100.0
2022-07-30T11:30:00.525Z,100.0
2022-07-30T11:31:00.223Z,100.0
2022-07-30T11:32:20.124Z,100.0
2022-07-30T11:33:03.508Z,100.0
2022-07-30T11:34:17.548Z,100.0
2022-07-30T11:35:11.201Z,100.0
2022-07-30T11:36:11.426Z,100.0
2022-07-30T11:37:18.182Z,100.0
2022-07-30T11:38:13.571Z,100.0
2022-07-30T11:39:05.095Z,100.0
2022-07-30T11:40:05.480Z,100.0
2022-07-30T11:41:00.230Z,100.0
2022-07-30T11:42:20.162Z,100.0
2022-07-30T11:43:20.244Z,100.0
2022-07-30T11:44:20.130Z,100.0
2022-07-30T11:45:17.490Z,100.0
2022-07-30T11:46:15.787Z,100.0
2022-07-30T11:47:01.712Z,100.0
2022-07-30T11:48:00.313Z,100.0
2022-07-30T11:49:03.148Z,100.0
2022-07-30T11:50:00.294Z,100.0
2022-07-30T11:51:03.815Z,100.0
2022-07-30T11:52:00.848Z,100.0
2022-07-30T11:53:05.243Z,100.0
2022-07-30T11:54:05.951Z,100.0
2022-07-30T11:55:00.228Z,100.0
2022-07-30T11:56:01.620Z,100.0
2022-07-30T11:57:04.379Z,100.0
2022-07-30T11:58:03.082Z,100.0
2022-07-30T11:59:03.200Z,100.0
2022-07-30T12:00:00.229Z,100.0
2022-07-30T12:01:09.315Z,100.0
2022-07-30T12:02:00.673Z,100.0
2022-07-30T12:03:06.755Z,100.0
2022-07-30T12:04:03.531Z,100.0
2022-07-30T12:05:00.407Z,100.0
2022-07-30T12:06:05.012Z,100.0
2022-07-30T12:07:00.544Z,100.0
2022-07-30T12:08:00.286Z,100.0
2022-07-30T12:09:00.728Z,100.0
2022-07-30T12:10:10.938Z,100.0
2022-07-30T12:11:00.789Z,100.0
2022-07-30T12:12:00.844Z,100.0
2022-07-30T12:13:09.468Z,100.0
2022-07-30T12:14:01.057Z,100.0
2022-07-30T12:15:01.837Z,100.0
2022-07-30T12:16:00.244Z,100.0
2022-07-30T12:17:00.571Z,100.0
2022-07-30T12:18:24.256Z,100.0
2022-07-30T12:19:02.562Z,100.0
2022-07-30T12:20:00.338Z,100.0
2022-07-30T12:21:03.938Z,100.0
2022-07-30T12:22:00.333Z,100.0
2022-07-30T12:23:00.322Z,100.0
2022-07-30T12:24:03.061Z,100.0
2022-07-30T12:25:06.211Z,100.0
2022-07-30T12:26:00.445Z,100.0
2022-07-30T12:27:05.118Z,100.0
2022-07-30T12:28:00.676Z,100.0
2022-07-30T12:29:03.907Z,100.0
2022-07-30T12:30:00.953Z,100.0
2022-07-30T12:31:00.912Z,100.0
2022-07-30T12:32:00.581Z,100.0
2022-07-30T12:33:00.332Z,100.0
2022-07-30T12:34:00.587Z,100.0
2022-07-30T12:35:00.603Z,100.0
2022-07-30T12:36:00.222Z,100.0
2022-07-30T12:37:09.023Z,100.0
2022-07-30T12:38:01.696Z,100.0
2022-07-30T12:39:02.122Z,100.0
2022-07-30T12:40:14.831Z,100.0
2022-07-30T12:41:02.375Z,100.0
2022-07-30T12:42:00.259Z,100.0
2022-07-30T12:43:00.276Z,100.0
2022-07-30T12:44:00.229Z,100.0
2022-07-30T12:45:00.636Z,100.0
2022-07-30T12:46:00.278Z,100.0
2022-07-30T12:47:00.912Z,100.0
2022-07-30T12:48:00.430Z,100.0
2022-07-30T12:49:06.961Z,100.0
2022-07-30T12:50:01.808Z,100.0
2022-07-30T12:51:08.237Z,100.0
2022-07-30T12:52:00.686Z,100.0
2022-07-30T12:53:00.333Z,100.0
2022-07-30T12:54:11.392Z,100.0
2022-07-30T12:55:03.522Z,100.0
2022-07-30T12:56:11.750Z,100.0
2022-07-30T12:57:03.981Z,100.0
2022-07-30T12:58:07.937Z,100.0
2022-07-30T12:59:00.266Z,100.0
2022-07-30T13:00:02.467Z,100.0
2022-07-30T13:01:00.292Z,100.0
2022-07-30T13:02:00.791Z,100.0
2022-07-30T13:03:00.482Z,100.0
2022-07-30T13:04:07.880Z,100.0
2022-07-30T13:05:10.535Z,100.0
2022-07-30T13:06:00.252Z,100.0
2022-07-30T13:07:03.206Z,100.0
2022-07-30T13:08:00.265Z,100.0
2022-07-30T13:09:00.767Z,100.0
2022-07-30T13:10:09.677Z,100.0
2022-07-30T13:11:00.492Z,100.0